Time;durP1;ratioP1;P1;durP2;ratioP2;P2;SDS_P1;SDS_P2;PMS_P1;PMS_P2;Temp;Humidity;BMP_temperature;BMP_pressure;BME280_temperature;BME280_humidity;BME280_pressure;Samples;Min_cycle;Max_cycle;Signal;HPM_P1;HPM_P2
2021/12/05 00:20:10;;;;;;;4.15;1.00;;;2.80;99.90;;;;;;4949826;29;20511;-59
2021/12/05 00:22:44;;;;;;;5.50;1.55;;;2.80;99.90;;;;;;4950048;29;20066;-58
2021/12/05 00:25:16;;;;;;;12.60;0.88;;;2.90;99.90;;;;;;4950601;29;20055;-59
2021/12/05 00:27:46;;;;;;;6.53;1.15;;;2.90;99.90;;;;;;4950474;29;20047;-58
2021/12/05 00:30:47;;;;;;;8.68;0.88;;;2.90;99.90;;;;;;4950447;29;20118;-58
2021/12/05 00:41:19;;;;;;;4.45;1.05;;;2.90;99.90;;;;;;4949887;29;20053;-58
2021/12/05 00:49:28;;;;;;;4.60;0.88;;;2.90;99.90;;;;;;4930671;29;20476;-58
2021/12/05 00:52:21;;;;;;;2.97;0.85;;;3.00;99.90;;;;;;4952911;29;20651;-58
2021/12/05 01:05:46;;;;;;;5.53;1.50;;;2.90;99.90;;;;;;4953852;29;20675;-59
2021/12/05 01:13:28;;;;;;;9.80;1.33;;;2.80;99.90;;;;;;4951706;29;20110;-58
2021/12/05 01:15:47;;;;;;;5.60;1.55;;;2.70;99.90;;;;;;4953206;29;20550;-60
2021/12/05 01:18:16;;;;;;;6.75;1.65;;;2.70;99.90;;;;;;4953007;29;20042;-58
2021/12/05 01:20:55;;;;;;;5.97;1.50;;;2.70;99.90;;;;;;4936259;29;20046;-58
2021/12/05 01:26:42;;;;;;;4.30;1.33;;;2.70;99.90;;;;;;4952606;29;20058;-59
2021/12/05 01:37:30;;;;;;;7.32;2.13;;;2.70;99.90;;;;;;4960992;28;20035;-58
2021/12/05 01:45:55;;;;;;;4.97;1.90;;;2.70;99.90;;;;;;4952182;29;20050;-59
2021/12/05 01:58:49;;;;;;;3.42;1.83;;;2.60;99.90;;;;;;4944240;28;20094;-59
2021/12/05 02:31:37;;;;;;;8.60;1.90;;;2.60;99.90;;;;;;4951808;29;20034;-58
2021/12/05 02:34:16;;;;;;;3.70;1.58;;;2.60;99.90;;;;;;4950684;29;20467;-59
2021/12/05 02:37:11;;;;;;;4.57;1.58;;;2.50;99.90;;;;;;4952152;29;20077;-58
2021/12/05 02:39:56;;;;;;;5.90;1.75;;;2.50;99.90;;;;;;4950858;29;20039;-59
2021/12/05 02:42:29;;;;;;;6.68;1.75;;;2.50;99.90;;;;;;4950521;29;20086;-58
2021/12/05 02:44:55;;;;;;;7.95;2.00;;;2.60;99.90;;;;;;4950943;29;20028;-60
2021/12/05 02:47:23;;;;;;;5.93;1.40;;;2.60;99.90;;;;;;4952357;29;20027;-58
2021/12/05 02:49:53;;;;;;;4.10;1.45;;;2.60;99.90;;;;;;4951491;29;20038;-59
2021/12/05 02:52:27;;;;;;;2.95;1.23;;;2.70;99.90;;;;;;4950204;29;20109;-59
2021/12/05 02:55:10;;;;;;;4.43;1.38;;;2.70;99.90;;;;;;4951531;29;20043;-60
2021/12/05 03:03:25;;;;;;;6.80;1.65;;;2.60;99.90;;;;;;4950836;29;20107;-59
2021/12/05 03:06:23;;;;;;;6.40;1.35;;;2.60;99.90;;;;;;4951871;29;20035;-59
2021/12/05 03:09:13;;;;;;;9.18;1.55;;;2.60;99.90;;;;;;4950608;29;20432;-58
2021/12/05 03:11:39;;;;;;;6.65;1.42;;;2.60;99.90;;;;;;4951030;29;20035;-59
2021/12/05 03:14:05;;;;;;;7.03;1.50;;;2.60;99.90;;;;;;4950565;29;20031;-58
2021/12/05 03:16:32;;;;;;;5.63;1.60;;;2.50;99.90;;;;;;4951117;29;20082;-58
2021/12/05 03:18:58;;;;;;;7.43;1.55;;;2.50;99.90;;;;;;4951253;29;20031;-59
2021/12/05 03:21:24;;;;;;;5.30;1.58;;;2.50;99.90;;;;;;4951041;29;20031;-59
2021/12/05 03:23:51;;;;;;;5.40;1.35;;;2.50;99.90;;;;;;4951387;29;20035;-59
2021/12/05 03:26:23;;;;;;;5.00;1.45;;;2.50;99.90;;;;;;4950287;29;20054;-59
2021/12/05 03:28:52;;;;;;;4.10;1.20;;;2.50;99.90;;;;;;4951069;29;20039;-59
2021/12/05 03:31:18;;;;;;;4.05;1.73;;;2.40;99.90;;;;;;4950161;29;20151;-59
2021/12/05 03:33:44;;;;;;;4.78;1.65;;;2.50;99.90;;;;;;4950583;29;20109;-58
2021/12/05 03:36:10;;;;;;;5.65;1.50;;;2.50;99.90;;;;;;4950097;29;20445;-59
2021/12/05 03:38:38;;;;;;;4.97;1.45;;;2.40;99.90;;;;;;4951219;29;20039;-58
2021/12/05 03:41:04;;;;;;;5.25;1.20;;;2.40;99.90;;;;;;4950089;29;20039;-58
2021/12/05 03:43:31;;;;;;;4.00;1.10;;;2.50;99.90;;;;;;4950960;29;20045;-59
2021/12/05 03:45:57;;;;;;;5.82;1.10;;;2.50;99.90;;;;;;4950697;29;20031;-60
2021/12/05 03:48:27;;;;;;;9.23;1.40;;;2.50;99.90;;;;;;4933423;29;20569;-58
2021/12/05 03:50:54;;;;;;;6.28;1.48;;;2.40;99.90;;;;;;4951741;29;20031;-58
2021/12/05 03:53:20;;;;;;;4.60;1.15;;;2.50;99.90;;;;;;4950487;29;20049;-59
2021/12/05 03:55:49;;;;;;;4.38;1.20;;;2.50;99.90;;;;;;4932544;29;20031;-58
2021/12/05 03:58:15;;;;;;;5.75;1.45;;;2.40;99.90;;;;;;4950190;29;20051;-58
2021/12/05 04:00:44;;;;;;;8.10;1.27;;;2.40;99.90;;;;;;4950765;29;20032;-58
2021/12/05 04:03:12;;;;;;;5.13;1.30;;;2.40;99.90;;;;;;4950025;29;20027;-59
2021/12/05 04:05:39;;;;;;;8.13;1.45;;;2.40;99.90;;;;;;4951209;29;20035;-59
2021/12/05 04:08:07;;;;;;;7.75;1.48;;;2.40;99.90;;;;;;4949840;29;20027;-58
2021/12/05 04:10:35;;;;;;;14.07;1.40;;;2.40;99.90;;;;;;4950389;29;20035;-58
2021/12/05 04:13:01;;;;;;;7.32;1.40;;;2.30;99.90;;;;;;4950133;29;20393;-59
2021/12/05 04:15:27;;;;;;;7.30;1.58;;;2.40;99.90;;;;;;4950233;29;20027;-58
2021/12/05 04:17:54;;;;;;;7.32;1.30;;;2.30;99.90;;;;;;4950971;29;20043;-58
2021/12/05 04:20:20;;;;;;;5.40;1.30;;;2.40;99.90;;;;;;4949668;29;20039;-58
2021/12/05 04:22:47;;;;;;;4.15;1.27;;;2.40;99.90;;;;;;4953500;28;20027;-58
2021/12/05 04:25:15;;;;;;;3.20;1.20;;;2.40;99.90;;;;;;4953577;29;20054;-58
2021/12/05 04:27:44;;;;;;;4.88;1.10;;;2.40;99.90;;;;;;4954614;29;20040;-58
2021/12/05 04:30:11;;;;;;;7.85;1.35;;;2.40;99.90;;;;;;4953560;29;20032;-58
2021/12/05 04:32:36;;;;;;;7.82;1.63;;;2.30;99.90;;;;;;4954286;29;20408;-58
2021/12/05 04:35:03;;;;;;;4.90;1.20;;;2.30;99.90;;;;;;4953531;29;20034;-60
2021/12/05 04:37:29;;;;;;;8.23;1.40;;;2.30;99.90;;;;;;4953704;29;20043;-59
2021/12/05 04:39:55;;;;;;;3.63;1.30;;;2.30;99.90;;;;;;4954432;29;20048;-58
2021/12/05 04:42:20;;;;;;;7.93;1.58;;;2.30;99.90;;;;;;4953759;29;20098;-58
2021/12/05 04:44:46;;;;;;;9.68;1.33;;;2.30;99.90;;;;;;4954330;29;20106;-58
2021/12/05 04:47:12;;;;;;;4.05;1.08;;;2.30;99.90;;;;;;4951763;29;20031;-58
2021/12/05 04:49:40;;;;;;;6.20;1.35;;;2.30;99.90;;;;;;4954704;29;20094;-59
2021/12/05 04:52:06;;;;;;;5.75;1.50;;;2.30;99.90;;;;;;4953897;28;20055;-58
2021/12/05 04:54:32;;;;;;;7.75;1.45;;;2.30;99.90;;;;;;4954334;29;20043;-58
2021/12/05 04:56:58;;;;;;;5.45;1.20;;;2.30;99.90;;;;;;4954374;29;20054;-59
2021/12/05 04:59:26;;;;;;;4.35;1.20;;;2.20;99.90;;;;;;4952993;29;20035;-58
2021/12/05 05:01:57;;;;;;;4.90;1.52;;;2.20;99.90;;;;;;4953741;29;20448;-58
2021/12/05 05:04:28;;;;;;;5.93;1.40;;;2.20;99.90;;;;;;4953002;29;20135;-57
2021/12/05 05:07:04;;;;;;;9.32;1.77;;;2.20;99.90;;;;;;4954199;29;20035;-58
2021/12/05 05:09:30;;;;;;;4.85;1.10;;;2.10;99.90;;;;;;4954145;29;20082;-58
2021/12/05 05:11:56;;;;;;;9.10;1.30;;;2.20;99.90;;;;;;4953708;29;20031;-58
2021/12/05 05:14:22;;;;;;;4.93;1.67;;;2.20;99.90;;;;;;4952988;29;20031;-58
2021/12/05 05:16:53;;;;;;;6.40;1.67;;;2.20;99.90;;;;;;4954036;29;20038;-58
2021/12/05 05:19:23;;;;;;;4.18;1.48;;;2.20;99.90;;;;;;4952917;29;20058;-58
2021/12/05 05:22:03;;;;;;;4.97;0.98;;;2.20;99.90;;;;;;4954031;29;20027;-58
2021/12/05 05:41:23;;;;;;;6.88;1.40;;;2.20;99.90;;;;;;4953381;29;20439;-58
2021/12/05 05:46:26;;;;;;;4.13;1.40;;;2.20;99.90;;;;;;4952389;29;20042;-58
2021/12/05 05:49:00;;;;;;;6.65;1.60;;;2.20;99.90;;;;;;4952271;29;20154;-59
2021/12/05 05:51:26;;;;;;;6.32;1.30;;;2.20;99.90;;;;;;4950819;29;21159;-59
2021/12/05 05:53:52;;;;;;;6.57;1.40;;;2.10;99.90;;;;;;4951706;28;20121;-58
2021/12/05 05:56:25;;;;;;;5.90;1.50;;;2.10;99.90;;;;;;4951778;29;20039;-59
2021/12/05 05:59:00;;;;;;;4.38;1.52;;;2.00;99.90;;;;;;4953408;28;20118;-58
2021/12/05 06:03:58;;;;;;;6.85;1.45;;;2.10;99.90;;;;;;4952904;29;20089;-58
2021/12/05 06:06:25;;;;;;;5.22;1.40;;;2.20;99.90;;;;;;4951644;29;20031;-58
2021/12/05 06:08:51;;;;;;;3.95;1.27;;;2.20;99.90;;;;;;4952807;29;20035;-58
2021/12/05 06:11:17;;;;;;;6.13;1.45;;;2.20;99.90;;;;;;4951964;29;20038;-58
2021/12/05 06:13:44;;;;;;;5.38;1.50;;;2.30;99.90;;;;;;4934823;29;20657;-58
2021/12/05 06:16:11;;;;;;;8.82;2.00;;;2.30;99.90;;;;;;4939572;29;20046;-59
2021/12/05 06:18:38;;;;;;;6.15;1.20;;;2.30;99.90;;;;;;4952344;29;20400;-59
2021/12/05 06:21:04;;;;;;;4.68;1.40;;;2.30;99.90;;;;;;4952365;29;20039;-59
2021/12/05 06:23:31;;;;;;;6.03;2.15;;;2.30;99.90;;;;;;4951877;29;20027;-58
2021/12/05 06:25:57;;;;;;;5.53;1.50;;;2.20;99.90;;;;;;4952168;29;20122;-58
2021/12/05 06:28:37;;;;;;;11.35;1.80;;;2.20;99.90;;;;;;4950894;29;20122;-59
2021/12/05 06:47:11;;;;;;;7.40;1.55;;;2.20;99.90;;;;;;4951266;29;20094;-60
2021/12/05 06:49:38;;;;;;;6.32;1.30;;;2.20;99.90;;;;;;4952270;29;20101;-59
2021/12/05 06:52:06;;;;;;;7.85;1.88;;;2.20;99.90;;;;;;4952023;28;20046;-59
2021/12/05 06:54:32;;;;;;;4.22;1.40;;;2.20;99.90;;;;;;4950753;29;20178;-58
2021/12/05 06:56:58;;;;;;;6.60;1.55;;;2.30;99.90;;;;;;4950621;29;20042;-59
2021/12/05 06:59:24;;;;;;;6.63;1.40;;;2.20;99.90;;;;;;4951204;28;20154;-59
2021/12/05 07:01:50;;;;;;;3.08;1.10;;;2.30;99.90;;;;;;4949881;29;20098;-59
2021/12/05 07:07:01;;;;;;;5.45;1.42;;;2.20;99.90;;;;;;4936298;29;20093;-58
2021/12/05 07:09:27;;;;;;;4.15;1.20;;;2.20;99.90;;;;;;4951461;29;20178;-58
2021/12/05 07:14:50;;;;;;;2.75;0.95;;;2.30;99.90;;;;;;4941162;29;20110;-59
2021/12/05 07:22:34;;;;;;;2.90;1.10;;;2.10;99.90;;;;;;4950498;29;21814;-59
2021/12/05 07:25:08;;;;;;;9.75;1.65;;;2.10;99.90;;;;;;4951268;29;20039;-59
2021/12/05 07:43:41;;;;;;;7.32;1.48;;;1.70;99.90;;;;;;4950229;29;20031;-58
2021/12/05 07:46:07;;;;;;;6.35;1.52;;;1.70;99.90;;;;;;4949859;29;20035;-58
2021/12/05 07:48:36;;;;;;;10.45;3.45;;;1.70;99.90;;;;;;4949087;29;20039;-58
2021/12/05 07:53:47;;;;;;;10.52;2.50;;;1.60;99.90;;;;;;4949343;29;20051;-58
2021/12/05 07:56:19;;;;;;;10.18;3.40;;;1.60;99.90;;;;;;4948087;29;20067;-60
2021/12/05 08:15:21;;;;;;;11.60;4.95;;;1.60;99.90;;;;;;4949434;29;20581;-58
2021/12/05 08:17:55;;;;;;;15.98;6.00;;;1.50;99.90;;;;;;4938727;28;20109;-60
2021/12/05 08:20:27;;;;;;;8.68;4.00;;;1.60;99.90;;;;;;4928958;28;20043;-59
2021/12/05 08:22:54;;;;;;;8.63;3.53;;;1.50;99.90;;;;;;4935328;29;20035;-60
2021/12/05 08:25:24;;;;;;;12.07;3.00;;;1.50;99.90;;;;;;4918277;28;20582;-59
2021/12/05 08:27:56;;;;;;;7.55;3.33;;;1.50;99.90;;;;;;4926836;28;20083;-59
2021/12/05 08:30:31;;;;;;;8.48;2.83;;;1.50;99.90;;;;;;4946251;28;20141;-59
2021/12/05 08:36:06;;;;;;;11.43;4.50;;;1.60;99.90;;;;;;4946884;28;20054;-60
2021/12/05 08:44:13;;;;;;;26.40;9.50;;;1.60;99.90;;;;;;4934350;28;20035;-60
2021/12/05 09:30:00;;;;;;;22.85;10.63;;;3.60;99.90;;;;;;4935205;28;20113;-60
2021/12/05 10:10:47;;;;;;;6.07;2.40;;;4.80;99.90;;;;;;4934456;28;20032;-59
2021/12/05 10:15:57;;;;;;;7.03;2.38;;;4.90;99.90;;;;;;4937245;28;20094;-60
2021/12/05 10:38:05;;;;;;;5.72;1.75;;;5.50;99.90;;;;;;4935493;28;20062;-60
2021/12/05 10:40:45;;;;;;;5.22;1.85;;;5.40;99.90;;;;;;4937256;28;20039;-60
2021/12/05 10:43:19;;;;;;;3.90;1.58;;;5.20;99.90;;;;;;4928255;28;20715;-61
2021/12/05 10:46:13;;;;;;;6.00;1.70;;;5.30;99.90;;;;;;4943020;28;20043;-60
2021/12/05 10:48:49;;;;;;;7.28;1.92;;;5.20;99.90;;;;;;4922523;28;20483;-60
2021/12/05 10:51:19;;;;;;;4.40;2.08;;;5.20;99.90;;;;;;4946654;28;20101;-61
2021/12/05 10:53:53;;;;;;;3.05;1.42;;;5.40;99.90;;;;;;4934614;28;20039;-60
2021/12/05 10:56:25;;;;;;;3.45;1.60;;;5.50;99.90;;;;;;4934938;28;20049;-60
2021/12/05 10:58:53;;;;;;;5.18;1.60;;;5.70;99.90;;;;;;4931406;29;20057;-60
2021/12/05 11:01:30;;;;;;;2.90;1.10;;;5.60;99.90;;;;;;4928742;28;20173;-60
2021/12/05 11:04:10;;;;;;;4.68;1.00;;;5.70;99.90;;;;;;4950514;28;20151;-60
2021/12/05 11:06:40;;;;;;;3.00;0.95;;;5.50;99.90;;;;;;4948271;28;20035;-61
2021/12/05 11:09:16;;;;;;;3.78;1.00;;;5.40;99.90;;;;;;4938206;28;20567;-60
2021/12/05 11:11:45;;;;;;;3.63;1.05;;;5.60;99.90;;;;;;4933173;29;20082;-60
2021/12/05 11:14:25;;;;;;;5.93;0.98;;;5.70;99.90;;;;;;4934650;28;20043;-60
2021/12/05 11:17:09;;;;;;;4.65;1.58;;;5.70;99.90;;;;;;4950141;28;20047;-60
2021/12/05 11:19:44;;;;;;;2.05;0.77;;;6.00;99.90;;;;;;4926975;28;20065;-60
2021/12/05 11:22:18;;;;;;;2.42;0.90;;;5.80;99.90;;;;;;4940583;28;20023;-60
2021/12/05 11:24:47;;;;;;;4.18;1.30;;;5.60;99.90;;;;;;4934374;28;20192;-60
2021/12/05 11:27:19;;;;;;;3.90;1.10;;;5.40;99.90;;;;;;4922298;28;20067;-60
2021/12/05 11:29:50;;;;;;;4.90;1.45;;;5.40;99.90;;;;;;4933037;29;20061;-60
2021/12/05 11:32:20;;;;;;;5.30;1.33;;;5.50;99.90;;;;;;4922875;28;20055;-60
2021/12/05 11:34:47;;;;;;;3.78;1.05;;;5.60;99.90;;;;;;4933965;29;20034;-60
2021/12/05 11:37:13;;;;;;;6.25;1.60;;;5.60;99.90;;;;;;4932814;28;20082;-60
2021/12/05 11:39:39;;;;;;;3.60;1.30;;;5.60;99.90;;;;;;4919401;28;20142;-60
2021/12/05 11:42:19;;;;;;;4.47;1.40;;;5.50;99.90;;;;;;4933714;29;20039;-60
2021/12/05 11:44:46;;;;;;;4.10;1.50;;;5.40;99.90;;;;;;4921922;28;20153;-59
2021/12/05 11:47:18;;;;;;;3.35;1.20;;;5.10;99.90;;;;;;4932587;29;20023;-60
2021/12/05 11:49:44;;;;;;;4.88;1.30;;;5.00;99.90;;;;;;4921864;28;20043;-59
2021/12/05 11:52:10;;;;;;;8.85;1.30;;;5.00;99.90;;;;;;4931950;28;20039;-61
2021/12/05 11:54:46;;;;;;;3.17;1.17;;;5.00;99.90;;;;;;4934651;29;20035;-60
2021/12/05 11:57:22;;;;;;;4.32;1.40;;;5.20;99.90;;;;;;4920574;28;20063;-61
2021/12/05 11:59:57;;;;;;;6.32;1.15;;;5.50;99.90;;;;;;4932165;29;20030;-60
2021/12/05 12:02:26;;;;;;;5.93;1.10;;;5.60;99.90;;;;;;4922829;28;20051;-60
2021/12/05 12:05:06;;;;;;;4.78;0.98;;;5.50;99.90;;;;;;4933797;28;20110;-59
2021/12/05 12:07:36;;;;;;;4.40;1.00;;;5.10;99.90;;;;;;4931733;29;20027;-60
2021/12/05 12:10:30;;;;;;;6.78;1.42;;;5.00;99.90;;;;;;4933964;28;20103;-60
2021/12/05 12:13:14;;;;;;;2.40;1.00;;;5.00;99.90;;;;;;4934274;28;20029;-60
2021/12/05 12:15:42;;;;;;;3.60;1.27;;;5.10;99.90;;;;;;4924020;28;20776;-60
2021/12/05 12:18:33;;;;;;;4.00;1.20;;;5.40;99.90;;;;;;4942558;29;20446;-60
2021/12/05 12:21:21;;;;;;;2.55;1.05;;;5.40;99.90;;;;;;4949776;29;20043;-60
2021/12/05 12:23:50;;;;;;;4.28;1.05;;;5.30;99.90;;;;;;4938830;28;20168;-60
2021/12/05 12:26:16;;;;;;;3.05;1.10;;;5.20;99.90;;;;;;4948782;29;20082;-60
2021/12/05 12:28:42;;;;;;;2.55;1.00;;;5.20;99.90;;;;;;4949836;28;20472;-59
2021/12/05 12:31:17;;;;;;;1.92;0.93;;;5.30;99.90;;;;;;4946928;29;20600;-60
2021/12/05 12:33:53;;;;;;;2.95;1.10;;;5.30;99.90;;;;;;4950261;29;20110;-60
2021/12/05 12:36:42;;;;;;;2.60;1.00;;;5.30;99.90;;;;;;4949103;29;20586;-60
2021/12/05 12:39:17;;;;;;;2.05;0.75;;;5.30;99.90;;;;;;4938177;29;20070;-60
2021/12/05 12:42:06;;;;;;;3.00;0.93;;;5.50;99.90;;;;;;4950536;29;20176;-60
2021/12/05 12:44:32;;;;;;;3.03;0.80;;;5.60;99.90;;;;;;4952465;29;20023;-59
2021/12/05 12:47:02;;;;;;;1.42;0.73;;;5.90;99.90;;;;;;4952551;29;20515;-59
2021/12/05 12:49:31;;;;;;;1.27;0.43;;;6.30;99.90;;;;;;4952688;29;20070;-59
2021/12/05 12:52:09;;;;;;;4.07;0.90;;;6.10;99.90;;;;;;4952084;29;20038;-60
2021/12/05 12:54:36;;;;;;;4.47;0.75;;;6.30;99.90;;;;;;4951618;29;20143;-59
2021/12/05 12:57:05;;;;;;;3.70;0.50;;;6.70;99.90;;;;;;4952876;29;20152;-59
2021/12/05 12:59:37;;;;;;;2.13;0.70;;;6.60;99.90;;;;;;4952832;29;20070;-60
2021/12/05 13:10:37;;;;;;;5.05;1.00;;;5.90;99.90;;;;;;4951977;29;20111;-60
2021/12/05 13:13:15;;;;;;;3.10;0.68;;;5.70;99.90;;;;;;4953192;29;20034;-60
2021/12/05 13:15:49;;;;;;;2.15;0.90;;;5.50;99.90;;;;;;4953888;29;20047;-60
2021/12/05 13:18:23;;;;;;;1.75;0.63;;;5.60;99.90;;;;;;4953355;29;20039;-60
2021/12/05 13:21:04;;;;;;;1.27;0.65;;;5.60;99.90;;;;;;4952186;29;20039;-60
2021/12/05 13:23:46;;;;;;;1.63;0.75;;;5.70;99.90;;;;;;4946629;29;20085;-60
2021/12/05 13:26:34;;;;;;;1.77;0.68;;;5.70;99.90;;;;;;4951986;29;20066;-60
2021/12/05 13:29:25;;;;;;;2.60;0.75;;;5.90;99.90;;;;;;4952415;29;20106;-60
2021/12/05 13:31:56;;;;;;;;;;;6.60;99.90;;;;;;4952544;29;20031;-60
2021/12/05 13:34:28;;;;;;;2.97;0.70;;;7.30;99.90;;;;;;4952091;29;19910;-60
2021/12/05 13:37:13;;;;;;;3.38;0.90;;;7.70;99.90;;;;;;4934251;29;20035;-60
2021/12/05 13:40:09;;;;;;;4.45;0.82;;;7.20;99.90;;;;;;4949198;29;20499;-60
2021/12/05 13:42:35;;;;;;;2.53;0.85;;;6.70;99.90;;;;;;4952027;29;20027;-60
2021/12/05 13:45:06;;;;;;;2.55;0.63;;;6.40;99.90;;;;;;4950636;29;20035;-60
2021/12/05 13:48:07;;;;;;;2.28;0.68;;;6.20;99.90;;;;;;4952261;29;20777;-60
2021/12/05 13:50:48;;;;;;;5.90;0.77;;;5.90;99.90;;;;;;4951071;29;20035;-60
2021/12/05 13:53:42;;;;;;;5.72;0.80;;;5.60;99.90;;;;;;4947048;29;20381;-60
2021/12/05 13:56:12;;;;;;;2.80;1.00;;;5.30;99.90;;;;;;4950017;29;20039;-60
2021/12/05 13:58:48;;;;;;;1.65;0.50;;;5.20;99.90;;;;;;4945083;29;20043;-60
2021/12/05 14:01:19;;;;;;;2.38;0.65;;;5.20;99.90;;;;;;4951411;29;20055;-60
2021/12/05 14:03:53;;;;;;;1.63;0.57;;;5.20;99.90;;;;;;4933575;29;20118;-60
2021/12/05 14:06:38;;;;;;;7.60;0.90;;;5.20;99.90;;;;;;4952275;29;20157;-60
2021/12/05 14:09:14;;;;;;;3.75;0.73;;;5.30;99.90;;;;;;4952745;29;20035;-61
2021/12/05 14:12:01;;;;;;;1.98;0.80;;;5.30;99.90;;;;;;4951948;29;20023;-60
2021/12/05 14:14:55;;;;;;;4.55;0.77;;;5.20;99.90;;;;;;4952231;29;20023;-61
2021/12/05 14:17:24;;;;;;;2.38;0.82;;;5.20;99.90;;;;;;4951541;29;20078;-61
2021/12/05 14:20:07;;;;;;;3.20;0.70;;;5.20;99.90;;;;;;4952964;29;20650;-60
2021/12/05 14:22:36;;;;;;;1.80;0.60;;;5.10;99.90;;;;;;4951802;29;20066;-60
2021/12/05 14:25:13;;;;;;;4.75;1.13;;;5.00;99.90;;;;;;4952537;29;20086;-60
2021/12/05 14:27:44;;;;;;;2.50;0.90;;;4.80;99.90;;;;;;4951958;29;20113;-60
2021/12/05 14:30:13;;;;;;;3.15;0.95;;;4.80;99.90;;;;;;4952038;29;20077;-61
2021/12/05 14:32:43;;;;;;;3.53;1.02;;;4.70;99.90;;;;;;4950985;29;20110;-61
2021/12/05 14:35:14;;;;;;;6.05;1.15;;;4.80;99.90;;;;;;4951298;29;20036;-61
2021/12/05 14:37:43;;;;;;;3.55;0.80;;;4.70;99.90;;;;;;4948664;29;20186;-61
2021/12/05 14:40:15;;;;;;;4.90;0.70;;;4.50;99.90;;;;;;4949784;29;20067;-61
2021/12/05 14:42:44;;;;;;;3.38;0.70;;;4.30;99.90;;;;;;4941067;28;20019;-62
2021/12/05 14:45:20;;;;;;;3.00;0.60;;;4.10;99.90;;;;;;4942308;28;20046;-61
2021/12/05 14:47:47;;;;;;;5.43;0.57;;;4.00;99.90;;;;;;4944443;29;20027;-61
2021/12/05 14:50:16;;;;;;;3.22;0.63;;;3.70;99.90;;;;;;4945087;29;20424;-61
2021/12/05 14:52:46;;;;;;;3.05;0.80;;;3.50;99.90;;;;;;4944190;29;20062;-61
2021/12/05 14:55:18;;;;;;;1.75;0.82;;;3.40;99.90;;;;;;4950163;28;20211;-61
2021/12/05 14:57:55;;;;;;;1.80;0.82;;;3.30;99.90;;;;;;4944701;29;20047;-61
2021/12/05 15:00:32;;;;;;;3.67;0.90;;;3.30;99.90;;;;;;4944791;29;20043;-61
2021/12/05 15:03:20;;;;;;;3.00;0.88;;;3.10;99.90;;;;;;4945917;29;20118;-61
2021/12/05 15:05:57;;;;;;;4.13;0.70;;;3.00;99.90;;;;;;4949009;28;20027;-61
2021/12/05 15:08:24;;;;;;;3.63;1.45;;;2.90;99.90;;;;;;4949535;29;20035;-61
2021/12/05 15:11:02;;;;;;;3.70;0.98;;;2.80;99.90;;;;;;4949930;29;20070;-61
2021/12/05 15:13:28;;;;;;;11.43;5.43;;;2.70;99.90;;;;;;4949153;29;20081;-62
2021/12/05 15:15:54;;;;;;;6.07;1.90;;;2.60;99.90;;;;;;4949161;28;20043;-61
2021/12/05 15:18:28;;;;;;;6.35;2.40;;;2.60;99.90;;;;;;4952045;28;20027;-61
2021/12/05 15:20:55;;;;;;;6.88;3.00;;;2.60;99.90;;;;;;4932890;29;20431;-61
2021/12/05 15:23:26;;;;;;;4.78;2.00;;;2.70;99.90;;;;;;4950356;29;20031;-61
2021/12/05 15:25:52;;;;;;;4.90;2.10;;;2.70;99.90;;;;;;4956066;28;20066;-61
2021/12/05 15:28:18;;;;;;;9.50;3.97;;;2.70;99.90;;;;;;4950474;29;20043;-61
2021/12/05 15:30:46;;;;;;;7.50;4.00;;;2.60;99.90;;;;;;4949824;29;20035;-61
2021/12/05 15:33:17;;;;;;;8.80;3.53;;;2.70;99.90;;;;;;4960453;28;20041;-61
2021/12/05 15:35:43;;;;;;;9.07;3.92;;;2.70;99.90;;;;;;4949762;28;20039;-61
2021/12/05 15:38:13;;;;;;;9.30;4.07;;;2.70;99.90;;;;;;4950218;28;20035;-61
2021/12/05 15:40:43;;;;;;;8.80;3.42;;;2.70;99.90;;;;;;4947236;28;20015;-61
2021/12/05 15:43:14;;;;;;;7.50;3.33;;;2.70;99.90;;;;;;4948045;29;20023;-61
2021/12/05 15:45:41;;;;;;;7.30;3.45;;;2.70;99.90;;;;;;4963498;28;20054;-61
2021/12/05 15:48:07;;;;;;;7.63;3.50;;;2.70;99.90;;;;;;4950400;29;20026;-61
2021/12/05 15:50:37;;;;;;;10.25;4.57;;;2.60;99.90;;;;;;4947141;29;20031;-61
2021/12/05 15:53:10;;;;;;;9.13;4.83;;;2.50;99.90;;;;;;4949790;29;20035;-61
2021/12/05 15:55:46;;;;;;;10.40;4.78;;;2.60;99.90;;;;;;4948877;29;20294;-61
2021/12/05 15:58:17;;;;;;;11.63;5.13;;;2.50;99.90;;;;;;4946946;29;20036;-61
2021/12/05 16:01:09;;;;;;;8.18;3.88;;;2.50;99.90;;;;;;4949157;29;20035;-61
2021/12/05 16:03:45;;;;;;;7.00;3.33;;;2.50;99.90;;;;;;4949852;29;20031;-61
2021/12/05 16:06:13;;;;;;;9.82;3.22;;;2.50;99.90;;;;;;4949953;28;20062;-61
2021/12/05 16:08:40;;;;;;;9.63;4.00;;;2.40;99.90;;;;;;4949234;29;20658;-61
2021/12/05 16:11:19;;;;;;;11.20;4.35;;;2.40;99.90;;;;;;4971656;28;20428;-61
2021/12/05 16:13:50;;;;;;;11.98;3.22;;;2.40;99.90;;;;;;4950318;28;20035;-61
2021/12/05 16:16:21;;;;;;;6.10;2.78;;;2.30;99.90;;;;;;4953708;28;20483;-61
2021/12/05 16:18:49;;;;;;;10.43;4.45;;;2.30;99.90;;;;;;4952225;28;20039;-61
2021/12/05 16:21:28;;;;;;;5.15;2.78;;;2.30;99.90;;;;;;4953957;29;20023;-61
2021/12/05 16:24:08;;;;;;;4.35;2.35;;;2.30;99.90;;;;;;4954031;28;20031;-61
2021/12/05 16:26:35;;;;;;;6.05;2.85;;;2.40;99.90;;;;;;4947690;29;20070;-61
2021/12/05 16:29:06;;;;;;;7.35;2.65;;;2.40;99.90;;;;;;4953562;29;20042;-61
2021/12/05 16:31:39;;;;;;;6.07;2.60;;;2.40;99.90;;;;;;4953081;29;20131;-61
2021/12/05 16:34:08;;;;;;;31.33;13.55;;;2.40;99.90;;;;;;4937441;29;20118;-61
2021/12/05 16:36:37;;;;;;;16.30;6.65;;;2.40;99.90;;;;;;4953825;28;20047;-61
2021/12/05 16:39:10;;;;;;;26.02;11.35;;;2.30;99.90;;;;;;4953268;29;20090;-61
2021/12/05 16:41:37;;;;;;;21.45;9.38;;;2.30;99.90;;;;;;4952974;29;20038;-61
2021/12/05 16:44:12;;;;;;;16.17;5.10;;;2.30;99.90;;;;;;4958671;28;20041;-61
2021/12/05 16:46:41;;;;;;;6.05;2.67;;;2.30;99.90;;;;;;4951728;29;20431;-61
2021/12/05 16:49:12;;;;;;;4.63;2.00;;;2.30;99.90;;;;;;4954333;28;20034;-61
2021/12/05 16:51:52;;;;;;;8.85;1.30;;;2.30;99.90;;;;;;4951576;28;20048;-61
2021/12/05 16:54:24;;;;;;;3.05;1.20;;;2.30;99.90;;;;;;4953081;29;20031;-61
2021/12/05 16:57:08;;;;;;;15.07;6.30;;;2.30;99.90;;;;;;4952604;29;20039;-61
2021/12/05 16:59:37;;;;;;;8.75;4.60;;;2.40;99.90;;;;;;4948953;28;20484;-61
2021/12/05 17:02:08;;;;;;;7.35;3.60;;;2.40;99.90;;;;;;4949660;29;20046;-62
2021/12/05 17:05:00;;;;;;;19.90;10.52;;;2.30;99.90;;;;;;4952866;29;20054;-61
2021/12/05 17:07:44;;;;;;;11.85;5.70;;;2.30;99.90;;;;;;4937698;29;20035;-61
2021/12/05 17:10:25;;;;;;;10.38;4.47;;;2.30;99.90;;;;;;4954168;29;20031;-61
2021/12/05 17:13:07;;;;;;;14.80;5.80;;;2.30;99.90;;;;;;4953931;29;20062;-62
2021/12/05 17:15:35;;;;;;;17.50;6.22;;;2.30;99.90;;;;;;4951455;29;20040;-62
2021/12/05 17:18:03;;;;;;;38.15;15.77;;;2.30;99.90;;;;;;4954377;29;20102;-62
2021/12/05 17:20:43;;;;;;;26.85;12.48;;;2.30;99.90;;;;;;4935237;29;20522;-62
2021/12/05 17:23:31;;;;;;;19.90;9.30;;;2.30;99.90;;;;;;4954052;29;20031;-63
2021/12/05 17:26:09;;;;;;;16.15;6.63;;;2.40;99.90;;;;;;4953701;29;20138;-62
2021/12/05 17:28:45;;;;;;;8.50;3.97;;;2.40;99.90;;;;;;4952857;28;20050;-62
2021/12/05 17:31:14;;;;;;;5.88;2.92;;;2.40;99.90;;;;;;4952591;29;20035;-62
2021/12/05 17:33:43;;;;;;;8.30;2.85;;;2.40;99.90;;;;;;4952735;29;20043;-62
2021/12/05 17:36:26;;;;;;;5.72;3.00;;;2.40;99.90;;;;;;4952898;29;20043;-62
2021/12/05 17:38:56;;;;;;;6.60;2.88;;;2.40;99.90;;;;;;4953980;29;20103;-62
2021/12/05 17:41:22;;;;;;;7.45;3.50;;;2.30;99.90;;;;;;4953972;29;20058;-63
2021/12/05 17:43:48;;;;;;;12.18;3.80;;;2.30;99.90;;;;;;4952920;29;20796;-62
2021/12/05 17:46:14;;;;;;;6.97;3.53;;;2.30;99.90;;;;;;4952847;29;20035;-62
2021/12/05 17:48:41;;;;;;;13.38;7.07;;;2.30;99.90;;;;;;4936746;29;20032;-62
2021/12/05 17:51:07;;;;;;;18.65;8.65;;;2.30;99.90;;;;;;4956257;28;20030;-62
2021/12/05 17:53:37;;;;;;;13.95;6.55;;;2.30;99.90;;;;;;4958911;28;20063;-62
2021/12/05 17:56:15;;;;;;;16.90;8.10;;;2.30;99.90;;;;;;4952992;29;20050;-62
2021/12/05 18:03:56;;;;;;;21.35;9.27;;;2.20;99.90;;;;;;4950509;29;20082;-62
2021/12/05 18:06:23;;;;;;;20.27;9.23;;;2.10;99.90;;;;;;4952571;28;20038;-62
2021/12/05 18:08:50;;;;;;;20.70;8.40;;;2.00;99.90;;;;;;4948814;29;20098;-62
2021/12/05 18:11:23;;;;;;;18.52;7.80;;;2.00;99.90;;;;;;4952355;29;20042;-63
2021/12/05 18:13:53;;;;;;;18.08;7.55;;;2.10;99.90;;;;;;4951353;29;20023;-62
2021/12/05 18:16:24;;;;;;;19.58;9.27;;;2.00;99.90;;;;;;4950123;29;20039;-62
2021/12/05 18:18:56;;;;;;;16.13;7.00;;;1.90;99.90;;;;;;4951064;29;20077;-62
2021/12/05 18:21:22;;;;;;;13.57;6.85;;;1.90;99.90;;;;;;4952210;28;20544;-63
2021/12/05 18:23:49;;;;;;;17.13;8.38;;;1.80;99.90;;;;;;4951216;29;20097;-62
2021/12/05 18:26:16;;;;;;;20.55;8.65;;;1.90;99.90;;;;;;4951897;29;20055;-62
2021/12/05 18:28:45;;;;;;;18.65;7.97;;;1.90;99.90;;;;;;4951393;29;20762;-62
2021/12/05 18:31:17;;;;;;;16.80;6.88;;;1.90;99.90;;;;;;4950952;29;20042;-62
2021/12/05 18:33:44;;;;;;;16.38;8.30;;;1.90;99.90;;;;;;4951133;29;20034;-62
2021/12/05 18:36:10;;;;;;;25.60;10.20;;;1.90;99.90;;;;;;4951799;29;20567;-62
2021/12/05 18:38:37;;;;;;;23.17;10.20;;;1.80;99.90;;;;;;4950758;29;20059;-62
2021/12/05 18:41:08;;;;;;;26.30;11.45;;;1.80;99.90;;;;;;4951016;28;20523;-62
2021/12/05 18:43:34;;;;;;;19.98;8.98;;;1.80;99.90;;;;;;4952304;29;20043;-62